sensor_id;sensor_type;location;lat;lon;timestamp;pressure;altitude;pressure_sealevel;temperature;humidity
8398;BME280;4236;54.504;9.588;2022-10-13T00:01:16;101887.91;;;9.11;100.00
8398;BME280;4236;54.504;9.588;2022-10-13T00:03:44;101885.25;;;9.11;100.00
8398;BME280;4236;54.504;9.588;2022-10-13T00:06:14;101888.06;;;9.09;100.00
8398;BME280;4236;54.504;9.588;2022-10-13T00:08:44;101892.53;;;9.09;100.00
8398;BME280;4236;54.504;9.588;2022-10-13T00:11:14;101890.06;;;9.07;100.00
8398;BME280;4236;54.504;9.588;2022-10-13T00:13:42;101892.84;;;9.06;100.00
8398;BME280;4236;54.504;9.588;2022-10-13T00:16:11;101895.69;;;9.04;100.00
8398;BME280;4236;54.504;9.588;2022-10-13T00:18:39;101902.00;;;9.03;100.00
8398;BME280;4236;54.504;9.588;2022-10-13T00:21:08;101896.16;;;9.00;100.00
8398;BME280;4236;54.504;9.588;2022-10-13T00:23:37;101902.63;;;8.97;100.00
8398;BME280;4236;54.504;9.588;2022-10-13T00:26:09;101893.47;;;8.92;100.00
8398;BME280;4236;54.504;9.588;2022-10-13T00:28:37;101901.88;;;8.87;100.00
8398;BME280;4236;54.504;9.588;2022-10-13T00:31:14;101900.03;;;8.79;100.00
8398;BME280;4236;54.504;9.588;2022-10-13T00:33:42;101902.47;;;8.73;100.00
8398;BME280;4236;54.504;9.588;2022-10-13T00:36:09;101901.28;;;8.67;100.00
8398;BME280;4236;54.504;9.588;2022-10-13T00:38:37;101902.06;;;8.60;100.00
8398;BME280;4236;54.504;9.588;2022-10-13T00:41:05;101904.34;;;8.55;100.00
8398;BME280;4236;54.504;9.588;2022-10-13T00:44:05;101901.50;;;8.48;100.00
8398;BME280;4236;54.504;9.588;2022-10-13T00:46:34;101895.94;;;8.42;100.00
8398;BME280;4236;54.504;9.588;2022-10-13T00:49:06;101895.56;;;8.37;100.00
8398;BME280;4236;54.504;9.588;2022-10-13T00:51:38;101899.53;;;8.32;100.00
8398;BME280;4236;54.504;9.588;2022-10-13T00:54:07;101900.81;;;8.28;100.00
8398;BME280;4236;54.504;9.588;2022-10-13T00:56:37;101898.28;;;8.27;100.00
8398;BME280;4236;54.504;9.588;2022-10-13T00:59:10;101889.47;;;8.26;100.00
8398;BME280;4236;54.504;9.588;2022-10-13T01:01:39;101899.13;;;8.27;100.00
8398;BME280;4236;54.504;9.588;2022-10-13T01:04:07;101885.84;;;8.27;100.00
8398;BME280;4236;54.504;9.588;2022-10-13T01:06:35;101888.38;;;8.29;100.00
8398;BME280;4236;54.504;9.588;2022-10-13T01:09:03;101882.75;;;8.32;100.00
8398;BME280;4236;54.504;9.588;2022-10-13T01:11:41;101885.09;;;8.35;100.00
8398;BME280;4236;54.504;9.588;2022-10-13T01:14:22;101879.63;;;8.37;100.00
8398;BME280;4236;54.504;9.588;2022-10-13T01:17:01;101874.81;;;8.40;100.00
8398;BME280;4236;54.504;9.588;2022-10-13T01:19:54;101873.69;;;8.43;100.00
8398;BME280;4236;54.504;9.588;2022-10-13T01:22:38;101881.34;;;8.46;100.00
8398;BME280;4236;54.504;9.588;2022-10-13T01:25:21;101873.22;;;8.47;100.00
8398;BME280;4236;54.504;9.588;2022-10-13T01:28:04;101868.59;;;8.49;100.00
8398;BME280;4236;54.504;9.588;2022-10-13T01:30:42;101865.09;;;8.49;100.00
8398;BME280;4236;54.504;9.588;2022-10-13T01:33:28;101856.13;;;8.50;100.00
8398;BME280;4236;54.504;9.588;2022-10-13T01:36:07;101849.97;;;8.49;100.00
8398;BME280;4236;54.504;9.588;2022-10-13T01:38:45;101848.47;;;8.47;100.00
8398;BME280;4236;54.504;9.588;2022-10-13T01:41:20;101845.44;;;8.42;100.00
8398;BME280;4236;54.504;9.588;2022-10-13T01:43:56;101844.09;;;8.38;100.00
8398;BME280;4236;54.504;9.588;2022-10-13T01:46:30;101837.41;;;8.33;100.00
8398;BME280;4236;54.504;9.588;2022-10-13T01:49:02;101833.53;;;8.28;100.00
8398;BME280;4236;54.504;9.588;2022-10-13T01:51:32;101839.44;;;8.22;100.00
8398;BME280;4236;54.504;9.588;2022-10-13T01:54:00;101833.91;;;8.15;100.00
8398;BME280;4236;54.504;9.588;2022-10-13T01:56:27;101827.56;;;8.08;100.00
8398;BME280;4236;54.504;9.588;2022-10-13T01:58:58;101819.53;;;8.00;100.00
8398;BME280;4236;54.504;9.588;2022-10-13T02:01:44;101821.13;;;7.93;100.00
8398;BME280;4236;54.504;9.588;2022-10-13T02:04:22;101813.09;;;7.85;100.00
8398;BME280;4236;54.504;9.588;2022-10-13T02:06:57;101806.03;;;7.76;100.00
8398;BME280;4236;54.504;9.588;2022-10-13T02:09:33;101814.75;;;7.68;100.00
8398;BME280;4236;54.504;9.588;2022-10-13T02:12:05;101804.91;;;7.61;100.00
8398;BME280;4236;54.504;9.588;2022-10-13T02:14:36;101808.16;;;7.55;100.00
8398;BME280;4236;54.504;9.588;2022-10-13T02:17:06;101805.41;;;7.47;100.00
8398;BME280;4236;54.504;9.588;2022-10-13T02:19:36;101806.00;;;7.41;100.00
8398;BME280;4236;54.504;9.588;2022-10-13T02:22:05;101809.28;;;7.35;100.00
8398;BME280;4236;54.504;9.588;2022-10-13T02:24:34;101801.75;;;7.30;100.00
8398;BME280;4236;54.504;9.588;2022-10-13T02:27:03;101799.56;;;7.26;100.00
8398;BME280;4236;54.504;9.588;2022-10-13T02:29:31;101793.00;;;7.20;100.00
8398;BME280;4236;54.504;9.588;2022-10-13T02:31:59;101788.31;;;7.14;100.00
8398;BME280;4236;54.504;9.588;2022-10-13T02:34:29;101788.59;;;7.11;100.00
8398;BME280;4236;54.504;9.588;2022-10-13T02:36:56;101792.56;;;7.07;100.00
8398;BME280;4236;54.504;9.588;2022-10-13T02:39:24;101784.06;;;7.03;100.00
8398;BME280;4236;54.504;9.588;2022-10-13T02:41:51;101791.34;;;7.01;100.00
8398;BME280;4236;54.504;9.588;2022-10-13T02:44:19;101787.00;;;7.00;100.00
8398;BME280;4236;54.504;9.588;2022-10-13T02:46:47;101785.19;;;7.01;100.00
8398;BME280;4236;54.504;9.588;2022-10-13T02:49:14;101783.38;;;7.01;100.00
8398;BME280;4236;54.504;9.588;2022-10-13T02:51:43;101778.59;;;7.05;100.00
8398;BME280;4236;54.504;9.588;2022-10-13T02:54:11;101775.50;;;7.09;100.00
8398;BME280;4236;54.504;9.588;2022-10-13T02:56:38;101768.75;;;7.15;100.00
8398;BME280;4236;54.504;9.588;2022-10-13T02:59:06;101767.88;;;7.24;100.00
8398;BME280;4236;54.504;9.588;2022-10-13T03:01:34;101768.78;;;7.33;100.00
8398;BME280;4236;54.504;9.588;2022-10-13T03:04:06;101770.53;;;7.42;100.00
8398;BME280;4236;54.504;9.588;2022-10-13T03:06:34;101763.47;;;7.50;100.00
8398;BME280;4236;54.504;9.588;2022-10-13T03:09:03;101751.94;;;7.59;100.00
8398;BME280;4236;54.504;9.588;2022-10-13T03:11:31;101764.47;;;7.67;100.00
8398;BME280;4236;54.504;9.588;2022-10-13T03:13:59;101763.69;;;7.74;100.00
8398;BME280;4236;54.504;9.588;2022-10-13T03:16:26;101754.97;;;7.82;100.00
8398;BME280;4236;54.504;9.588;2022-10-13T03:18:54;101752.50;;;7.89;100.00
8398;BME280;4236;54.504;9.588;2022-10-13T03:21:22;101748.25;;;7.96;100.00
8398;BME280;4236;54.504;9.588;2022-10-13T03:23:49;101742.31;;;8.02;100.00
8398;BME280;4236;54.504;9.588;2022-10-13T03:26:18;101741.72;;;8.08;100.00
8398;BME280;4236;54.504;9.588;2022-10-13T03:28:47;101745.72;;;8.12;100.00
8398;BME280;4236;54.504;9.588;2022-10-13T03:31:16;101744.59;;;8.14;100.00
8398;BME280;4236;54.504;9.588;2022-10-13T03:33:44;101747.59;;;8.19;100.00
8398;BME280;4236;54.504;9.588;2022-10-13T03:36:12;101743.63;;;8.23;100.00
8398;BME280;4236;54.504;9.588;2022-10-13T03:38:40;101746.81;;;8.27;100.00
8398;BME280;4236;54.504;9.588;2022-10-13T03:41:08;101751.69;;;8.31;100.00
8398;BME280;4236;54.504;9.588;2022-10-13T03:43:38;101749.56;;;8.35;100.00
8398;BME280;4236;54.504;9.588;2022-10-13T03:46:07;101750.06;;;8.39;100.00
8398;BME280;4236;54.504;9.588;2022-10-13T03:48:36;101748.09;;;8.41;100.00
8398;BME280;4236;54.504;9.588;2022-10-13T03:51:05;101743.28;;;8.44;100.00
8398;BME280;4236;54.504;9.588;2022-10-13T03:53:33;101737.97;;;8.44;100.00
8398;BME280;4236;54.504;9.588;2022-10-13T03:56:02;101744.66;;;8.48;100.00
8398;BME280;4236;54.504;9.588;2022-10-13T03:58:30;101738.31;;;8.49;100.00
8398;BME280;4236;54.504;9.588;2022-10-13T04:01:03;101740.84;;;8.51;100.00
8398;BME280;4236;54.504;9.588;2022-10-13T04:03:31;101731.19;;;8.50;100.00
8398;BME280;4236;54.504;9.588;2022-10-13T04:06:00;101736.19;;;8.53;100.00
8398;BME280;4236;54.504;9.588;2022-10-13T04:08:28;101729.88;;;8.54;100.00
8398;BME280;4236;54.504;9.588;2022-10-13T04:10:59;101728.03;;;8.54;100.00
8398;BME280;4236;54.504;9.588;2022-10-13T04:13:27;101719.06;;;8.55;100.00
8398;BME280;4236;54.504;9.588;2022-10-13T04:15:55;101726.06;;;8.56;100.00
8398;BME280;4236;54.504;9.588;2022-10-13T04:18:24;101719.91;;;8.56;100.00
8398;BME280;4236;54.504;9.588;2022-10-13T04:20:51;101715.75;;;8.53;100.00
8398;BME280;4236;54.504;9.588;2022-10-13T04:23:19;101714.06;;;8.52;100.00
8398;BME280;4236;54.504;9.588;2022-10-13T04:25:46;101714.41;;;8.49;100.00
8398;BME280;4236;54.504;9.588;2022-10-13T04:28:14;101713.56;;;8.49;100.00
8398;BME280;4236;54.504;9.588;2022-10-13T04:30:42;101720.72;;;8.48;100.00
8398;BME280;4236;54.504;9.588;2022-10-13T04:33:14;101703.94;;;8.48;100.00
8398;BME280;4236;54.504;9.588;2022-10-13T04:35:43;101687.16;;;8.47;100.00
8398;BME280;4236;54.504;9.588;2022-10-13T04:38:11;101677.50;;;8.46;100.00
8398;BME280;4236;54.504;9.588;2022-10-13T04:40:38;101699.78;;;8.45;100.00
8398;BME280;4236;54.504;9.588;2022-10-13T04:43:06;101702.44;;;8.45;100.00
8398;BME280;4236;54.504;9.588;2022-10-13T04:45:34;101702.59;;;8.44;100.00
8398;BME280;4236;54.504;9.588;2022-10-13T04:48:02;101695.75;;;8.41;100.00
8398;BME280;4236;54.504;9.588;2022-10-13T04:50:29;101700.91;;;8.43;100.00
8398;BME280;4236;54.504;9.588;2022-10-13T04:52:58;101694.94;;;8.41;100.00
8398;BME280;4236;54.504;9.588;2022-10-13T04:55:26;101695.75;;;8.41;100.00
8398;BME280;4236;54.504;9.588;2022-10-13T04:57:53;101695.09;;;8.39;100.00
8398;BME280;4236;54.504;9.588;2022-10-13T05:00:21;101693.25;;;8.40;100.00
8398;BME280;4236;54.504;9.588;2022-10-13T05:02:49;101688.78;;;8.40;100.00
8398;BME280;4236;54.504;9.588;2022-10-13T05:05:16;101687.94;;;8.40;100.00
8398;BME280;4236;54.504;9.588;2022-10-13T05:07:44;101699.56;;;8.39;100.00
8398;BME280;4236;54.504;9.588;2022-10-13T05:10:13;101704.88;;;8.39;100.00
8398;BME280;4236;54.504;9.588;2022-10-13T05:12:40;101703.06;;;8.39;100.00
8398;BME280;4236;54.504;9.588;2022-10-13T05:15:08;101705.56;;;8.41;100.00
8398;BME280;4236;54.504;9.588;2022-10-13T05:17:36;101696.59;;;8.42;100.00
8398;BME280;4236;54.504;9.588;2022-10-13T05:20:04;101693.94;;;8.42;100.00
8398;BME280;4236;54.504;9.588;2022-10-13T05:22:32;101684.97;;;8.43;100.00
8398;BME280;4236;54.504;9.588;2022-10-13T05:24:59;101680.34;;;8.45;100.00
8398;BME280;4236;54.504;9.588;2022-10-13T05:27:28;101678.34;;;8.47;100.00
8398;BME280;4236;54.504;9.588;2022-10-13T05:29:56;101673.84;;;8.47;100.00
8398;BME280;4236;54.504;9.588;2022-10-13T05:32:23;101676.53;;;8.47;100.00
8398;BME280;4236;54.504;9.588;2022-10-13T05:34:51;101682.50;;;8.49;100.00
8398;BME280;4236;54.504;9.588;2022-10-13T05:37:18;101681.50;;;8.50;100.00
8398;BME280;4236;54.504;9.588;2022-10-13T05:39:47;101684.00;;;8.52;100.00
8398;BME280;4236;54.504;9.588;2022-10-13T05:42:15;101697.16;;;8.53;100.00
8398;BME280;4236;54.504;9.588;2022-10-13T05:44:45;101699.63;;;8.55;100.00
8398;BME280;4236;54.504;9.588;2022-10-13T05:47:12;101683.69;;;8.55;100.00
8398;BME280;4236;54.504;9.588;2022-10-13T05:49:40;101695.00;;;8.57;100.00
8398;BME280;4236;54.504;9.588;2022-10-13T05:52:09;101673.56;;;8.58;100.00
8398;BME280;4236;54.504;9.588;2022-10-13T05:54:39;101683.03;;;8.61;100.00
8398;BME280;4236;54.504;9.588;2022-10-13T05:57:12;101670.56;;;8.61;100.00
8398;BME280;4236;54.504;9.588;2022-10-13T05:59:46;101670.44;;;8.63;100.00
8398;BME280;4236;54.504;9.588;2022-10-13T06:02:16;101662.47;;;8.63;100.00
8398;BME280;4236;54.504;9.588;2022-10-13T06:04:48;101667.28;;;8.67;100.00
8398;BME280;4236;54.504;9.588;2022-10-13T06:07:17;101666.13;;;8.70;100.00
8398;BME280;4236;54.504;9.588;2022-10-13T06:09:45;101665.97;;;8.71;100.00
8398;BME280;4236;54.504;9.588;2022-10-13T06:12:12;101661.81;;;8.77;100.00
8398;BME280;4236;54.504;9.588;2022-10-13T06:14:40;101656.19;;;8.80;100.00
8398;BME280;4236;54.504;9.588;2022-10-13T06:17:09;101667.34;;;8.83;100.00
8398;BME280;4236;54.504;9.588;2022-10-13T06:19:36;101662.66;;;8.85;100.00
8398;BME280;4236;54.504;9.588;2022-10-13T06:22:04;101658.69;;;8.89;100.00
8398;BME280;4236;54.504;9.588;2022-10-13T06:24:31;101651.19;;;8.93;100.00
8398;BME280;4236;54.504;9.588;2022-10-13T06:26:59;101650.88;;;8.96;100.00
8398;BME280;4236;54.504;9.588;2022-10-13T06:29:26;101659.38;;;9.00;100.00
8398;BME280;4236;54.504;9.588;2022-10-13T06:31:54;101652.72;;;9.04;100.00
8398;BME280;4236;54.504;9.588;2022-10-13T06:34:23;101659.72;;;9.05;100.00
8398;BME280;4236;54.504;9.588;2022-10-13T06:36:50;101659.22;;;9.09;100.00
8398;BME280;4236;54.504;9.588;2022-10-13T06:39:18;101662.22;;;9.14;100.00
8398;BME280;4236;54.504;9.588;2022-10-13T06:41:46;101655.56;;;9.18;100.00
8398;BME280;4236;54.504;9.588;2022-10-13T06:44:13;101652.25;;;9.24;100.00
8398;BME280;4236;54.504;9.588;2022-10-13T06:46:41;101649.25;;;9.27;100.00
8398;BME280;4236;54.504;9.588;2022-10-13T06:49:08;101651.06;;;9.35;100.00
8398;BME280;4236;54.504;9.588;2022-10-13T06:51:37;101644.09;;;9.42;100.00
8398;BME280;4236;54.504;9.588;2022-10-13T06:54:05;101646.09;;;9.48;100.00
8398;BME280;4236;54.504;9.588;2022-10-13T06:56:32;101642.09;;;9.60;100.00
8398;BME280;4236;54.504;9.588;2022-10-13T06:59:00;101643.41;;;9.72;100.00
8398;BME280;4236;54.504;9.588;2022-10-13T07:01:28;101651.56;;;9.79;100.00
8398;BME280;4236;54.504;9.588;2022-10-13T07:03:55;101655.03;;;9.87;100.00
8398;BME280;4236;54.504;9.588;2022-10-13T07:06:23;101643.50;;;9.95;100.00
8398;BME280;4236;54.504;9.588;2022-10-13T07:08:52;101648.84;;;10.03;100.00
8398;BME280;4236;54.504;9.588;2022-10-13T07:11:20;101653.63;;;10.08;100.00
8398;BME280;4236;54.504;9.588;2022-10-13T07:13:47;101642.81;;;10.17;100.00
8398;BME280;4236;54.504;9.588;2022-10-13T07:16:15;101649.94;;;10.33;100.00
8398;BME280;4236;54.504;9.588;2022-10-13T07:18:42;101642.38;;;10.44;100.00
8398;BME280;4236;54.504;9.588;2022-10-13T07:21:10;101647.19;;;10.49;100.00
8398;BME280;4236;54.504;9.588;2022-10-13T07:23:38;101646.31;;;10.57;100.00
8398;BME280;4236;54.504;9.588;2022-10-13T07:26:09;101645.50;;;10.56;100.00
8398;BME280;4236;54.504;9.588;2022-10-13T07:28:37;101656.44;;;10.61;100.00
8398;BME280;4236;54.504;9.588;2022-10-13T07:31:08;101647.94;;;10.66;100.00
8398;BME280;4236;54.504;9.588;2022-10-13T07:33:37;101643.91;;;10.70;100.00
8398;BME280;4236;54.504;9.588;2022-10-13T07:36:05;101642.06;;;10.70;100.00
8398;BME280;4236;54.504;9.588;2022-10-13T07:38:33;101645.72;;;10.77;100.00
8398;BME280;4236;54.504;9.588;2022-10-13T07:41:01;101641.84;;;10.80;100.00
8398;BME280;4236;54.504;9.588;2022-10-13T07:43:31;101635.81;;;10.86;100.00
8398;BME280;4236;54.504;9.588;2022-10-13T07:45:58;101632.16;;;10.87;100.00
8398;BME280;4236;54.504;9.588;2022-10-13T07:48:27;101633.28;;;10.92;100.00
8398;BME280;4236;54.504;9.588;2022-10-13T07:50:54;101630.06;;;10.97;100.00
8398;BME280;4236;54.504;9.588;2022-10-13T07:53:22;101628.34;;;11.04;100.00
8398;BME280;4236;54.504;9.588;2022-10-13T07:55:50;101619.44;;;11.11;100.00
8398;BME280;4236;54.504;9.588;2022-10-13T07:58:17;101624.72;;;11.20;100.00
8398;BME280;4236;54.504;9.588;2022-10-13T08:00:54;101621.00;;;11.29;100.00
8398;BME280;4236;54.504;9.588;2022-10-13T08:03:22;101625.78;;;11.33;100.00
8398;BME280;4236;54.504;9.588;2022-10-13T08:05:49;101627.00;;;11.45;100.00
8398;BME280;4236;54.504;9.588;2022-10-13T08:08:17;101618.28;;;11.51;100.00
8398;BME280;4236;54.504;9.588;2022-10-13T08:10:45;101622.31;;;11.62;100.00
8398;BME280;4236;54.504;9.588;2022-10-13T08:13:13;101618.59;;;11.71;100.00
8398;BME280;4236;54.504;9.588;2022-10-13T08:15:41;101617.34;;;11.82;100.00
8398;BME280;4236;54.504;9.588;2022-10-13T08:18:11;101615.19;;;11.92;100.00
8398;BME280;4236;54.504;9.588;2022-10-13T08:20:39;101611.25;;;12.02;100.00
8398;BME280;4236;54.504;9.588;2022-10-13T08:23:09;101608.31;;;12.12;100.00
8398;BME280;4236;54.504;9.588;2022-10-13T08:25:37;101593.25;;;12.26;100.00
8398;BME280;4236;54.504;9.588;2022-10-13T08:28:08;101591.28;;;12.34;100.00
8398;BME280;4236;54.504;9.588;2022-10-13T08:30:42;101596.81;;;12.47;100.00
8398;BME280;4236;54.504;9.588;2022-10-13T08:33:11;101593.19;;;12.55;100.00
8398;BME280;4236;54.504;9.588;2022-10-13T08:35:39;101595.75;;;12.63;100.00
8398;BME280;4236;54.504;9.588;2022-10-13T08:38:08;101586.63;;;12.78;100.00
8398;BME280;4236;54.504;9.588;2022-10-13T08:40:36;101592.13;;;12.92;100.00
8398;BME280;4236;54.504;9.588;2022-10-13T08:43:05;101592.75;;;12.94;100.00
8398;BME280;4236;54.504;9.588;2022-10-13T08:45:33;101587.41;;;12.94;100.00
8398;BME280;4236;54.504;9.588;2022-10-13T08:48:12;101584.72;;;12.94;100.00
8398;BME280;4236;54.504;9.588;2022-10-13T08:50:43;101577.34;;;12.96;100.00
8398;BME280;4236;54.504;9.588;2022-10-13T08:53:16;101577.75;;;12.93;100.00
8398;BME280;4236;54.504;9.588;2022-10-13T08:55:48;101576.69;;;12.94;100.00
8398;BME280;4236;54.504;9.588;2022-10-13T08:58:19;101583.41;;;13.04;100.00
8398;BME280;4236;54.504;9.588;2022-10-13T09:00:51;101568.63;;;13.08;100.00
8398;BME280;4236;54.504;9.588;2022-10-13T09:03:27;101576.47;;;13.10;100.00
8398;BME280;4236;54.504;9.588;2022-10-13T09:06:08;101568.50;;;13.16;100.00
8398;BME280;4236;54.504;9.588;2022-10-13T09:08:40;101573.94;;;13.23;100.00
8398;BME280;4236;54.504;9.588;2022-10-13T09:11:11;101570.44;;;13.29;100.00
8398;BME280;4236;54.504;9.588;2022-10-13T09:13:39;101570.06;;;13.32;100.00
8398;BME280;4236;54.504;9.588;2022-10-13T09:16:07;101573.19;;;13.36;100.00
8398;BME280;4236;54.504;9.588;2022-10-13T09:18:36;101572.78;;;13.39;100.00
8398;BME280;4236;54.504;9.588;2022-10-13T09:21:17;101573.84;;;13.38;100.00
8398;BME280;4236;54.504;9.588;2022-10-13T09:23:45;101575.03;;;13.35;100.00
8398;BME280;4236;54.504;9.588;2022-10-13T09:26:18;101563.13;;;13.38;100.00
8398;BME280;4236;54.504;9.588;2022-10-13T09:28:46;101574.63;;;13.38;100.00
8398;BME280;4236;54.504;9.588;2022-10-13T09:31:16;101567.03;;;13.42;100.00
8398;BME280;4236;54.504;9.588;2022-10-13T09:33:56;101577.31;;;13.38;100.00
8398;BME280;4236;54.504;9.588;2022-10-13T09:36:24;101569.94;;;13.40;100.00
8398;BME280;4236;54.504;9.588;2022-10-13T09:39:13;101573.69;;;13.46;100.00
8398;BME280;4236;54.504;9.588;2022-10-13T09:41:42;101574.47;;;13.40;100.00
8398;BME280;4236;54.504;9.588;2022-10-13T09:44:12;101575.91;;;13.42;100.00
8398;BME280;4236;54.504;9.588;2022-10-13T09:46:47;101572.50;;;13.55;100.00
8398;BME280;4236;54.504;9.588;2022-10-13T09:49:38;101575.03;;;13.63;100.00
8398;BME280;4236;54.504;9.588;2022-10-13T09:52:15;101575.09;;;13.69;100.00
8398;BME280;4236;54.504;9.588;2022-10-13T09:54:46;101564.97;;;13.71;100.00
8398;BME280;4236;54.504;9.588;2022-10-13T09:57:23;101563.56;;;13.75;100.00
8398;BME280;4236;54.504;9.588;2022-10-13T10:00:03;101556.16;;;13.77;100.00
8398;BME280;4236;54.504;9.588;2022-10-13T10:02:35;101555.91;;;13.72;98.46
8398;BME280;4236;54.504;9.588;2022-10-13T10:05:13;101557.81;;;13.78;99.53
8398;BME280;4236;54.504;9.588;2022-10-13T10:07:43;101557.59;;;13.73;98.43
8398;BME280;4236;54.504;9.588;2022-10-13T10:10:22;101571.28;;;13.57;96.56
8398;BME280;4236;54.504;9.588;2022-10-13T10:12:51;101559.44;;;13.45;97.59
8398;BME280;4236;54.504;9.588;2022-10-13T10:15:20;101563.13;;;13.38;99.13
8398;BME280;4236;54.504;9.588;2022-10-13T10:17:54;101566.69;;;13.23;99.76
8398;BME280;4236;54.504;9.588;2022-10-13T10:20:35;101568.06;;;13.13;100.00
8398;BME280;4236;54.504;9.588;2022-10-13T10:23:11;101559.50;;;13.03;100.00
8398;BME280;4236;54.504;9.588;2022-10-13T10:25:43;101554.91;;;12.97;100.00
8398;BME280;4236;54.504;9.588;2022-10-13T10:28:26;101553.69;;;12.99;100.00
8398;BME280;4236;54.504;9.588;2022-10-13T10:31:07;101549.69;;;13.10;100.00
8398;BME280;4236;54.504;9.588;2022-10-13T10:33:44;101548.09;;;13.15;100.00
8398;BME280;4236;54.504;9.588;2022-10-13T10:36:21;101561.03;;;13.12;100.00
8398;BME280;4236;54.504;9.588;2022-10-13T10:38:51;101554.13;;;13.03;100.00
8398;BME280;4236;54.504;9.588;2022-10-13T10:41:34;101548.28;;;12.93;100.00
8398;BME280;4236;54.504;9.588;2022-10-13T10:44:07;101542.03;;;12.86;100.00
8398;BME280;4236;54.504;9.588;2022-10-13T10:46:39;101537.38;;;12.73;100.00
8398;BME280;4236;54.504;9.588;2022-10-13T10:49:14;101537.38;;;12.73;100.00
8398;BME280;4236;54.504;9.588;2022-10-13T10:51:44;101531.78;;;12.68;100.00
8398;BME280;4236;54.504;9.588;2022-10-13T10:54:21;101537.31;;;12.66;100.00
8398;BME280;4236;54.504;9.588;2022-10-13T10:56:55;101541.09;;;12.72;100.00
8398;BME280;4236;54.504;9.588;2022-10-13T10:59:39;101534.16;;;12.77;100.00
8398;BME280;4236;54.504;9.588;2022-10-13T11:02:15;101533.75;;;12.81;100.00
8398;BME280;4236;54.504;9.588;2022-10-13T11:04:47;101529.63;;;12.78;100.00
8398;BME280;4236;54.504;9.588;2022-10-13T11:10:20;101542.50;;;12.68;100.00
8398;BME280;4236;54.504;9.588;2022-10-13T11:13:21;101536.56;;;12.72;100.00
8398;BME280;4236;54.504;9.588;2022-10-13T11:15:51;101533.94;;;12.79;100.00
8398;BME280;4236;54.504;9.588;2022-10-13T11:18:51;101544.09;;;12.84;100.00
8398;BME280;4236;54.504;9.588;2022-10-13T11:21:21;101529.03;;;12.83;100.00
8398;BME280;4236;54.504;9.588;2022-10-13T11:23:49;101529.25;;;12.81;100.00
8398;BME280;4236;54.504;9.588;2022-10-13T11:26:40;101538.84;;;12.75;100.00
8398;BME280;4236;54.504;9.588;2022-10-13T11:29:16;101526.69;;;12.73;100.00
8398;BME280;4236;54.504;9.588;2022-10-13T11:31:48;101519.31;;;12.75;100.00
8398;BME280;4236;54.504;9.588;2022-10-13T11:34:30;101518.34;;;12.83;100.00
8398;BME280;4236;54.504;9.588;2022-10-13T11:37:00;101522.91;;;12.89;100.00
8398;BME280;4236;54.504;9.588;2022-10-13T11:43:02;101520.78;;;13.05;100.00
8398;BME280;4236;54.504;9.588;2022-10-13T11:45:47;101514.41;;;13.06;100.00
8398;BME280;4236;54.504;9.588;2022-10-13T11:51:30;101511.88;;;13.19;100.00
8398;BME280;4236;54.504;9.588;2022-10-13T11:54:09;101513.22;;;13.37;100.00
8398;BME280;4236;54.504;9.588;2022-10-13T11:56:45;101508.38;;;13.53;100.00
8398;BME280;4236;54.504;9.588;2022-10-13T11:59:25;101504.38;;;13.70;100.00
8398;BME280;4236;54.504;9.588;2022-10-13T12:01:54;101499.13;;;13.97;100.00
8398;BME280;4236;54.504;9.588;2022-10-13T12:04:23;101494.69;;;14.30;100.00
8398;BME280;4236;54.504;9.588;2022-10-13T12:06:54;101489.41;;;14.76;100.00
8398;BME280;4236;54.504;9.588;2022-10-13T12:09:23;101488.63;;;15.08;100.00
8398;BME280;4236;54.504;9.588;2022-10-13T12:11:56;101489.41;;;15.35;100.00
8398;BME280;4236;54.504;9.588;2022-10-13T12:14:30;101477.53;;;15.69;100.00
8398;BME280;4236;54.504;9.588;2022-10-13T12:16:59;101470.97;;;16.09;100.00
8398;BME280;4236;54.504;9.588;2022-10-13T12:19:30;101482.06;;;16.19;100.00
8398;BME280;4236;54.504;9.588;2022-10-13T12:22:00;101480.97;;;16.33;100.00
8398;BME280;4236;54.504;9.588;2022-10-13T12:24:29;101473.25;;;16.43;99.44
8398;BME280;4236;54.504;9.588;2022-10-13T12:26:57;101465.13;;;16.50;97.76
8398;BME280;4236;54.504;9.588;2022-10-13T12:29:27;101466.09;;;16.62;98.97
8398;BME280;4236;54.504;9.588;2022-10-13T12:32:02;101465.25;;;16.93;100.00
8398;BME280;4236;54.504;9.588;2022-10-13T12:34:32;101461.25;;;17.20;98.88
8398;BME280;4236;54.504;9.588;2022-10-13T12:37:04;101453.41;;;16.94;92.13
8398;BME280;4236;54.504;9.588;2022-10-13T12:39:35;101447.22;;;16.69;88.32
8398;BME280;4236;54.504;9.588;2022-10-13T12:42:06;101447.41;;;16.67;89.75
8398;BME280;4236;54.504;9.588;2022-10-13T12:44:35;101446.72;;;16.78;91.42
8398;BME280;4236;54.504;9.588;2022-10-13T12:47:03;101449.03;;;16.75;90.50
8398;BME280;4236;54.504;9.588;2022-10-13T12:49:32;101447.59;;;16.72;90.68
8398;BME280;4236;54.504;9.588;2022-10-13T12:52:04;101449.22;;;16.73;91.11
8398;BME280;4236;54.504;9.588;2022-10-13T12:54:33;101438.72;;;16.65;90.63
8398;BME280;4236;54.504;9.588;2022-10-13T12:57:04;101451.59;;;16.63;91.52
8398;BME280;4236;54.504;9.588;2022-10-13T12:59:32;101452.50;;;16.50;90.94
8398;BME280;4236;54.504;9.588;2022-10-13T13:02:02;101452.47;;;16.57;93.04
8398;BME280;4236;54.504;9.588;2022-10-13T13:04:38;101442.25;;;16.66;92.74
8398;BME280;4236;54.504;9.588;2022-10-13T13:07:28;101449.22;;;16.73;92.42
8398;BME280;4236;54.504;9.588;2022-10-13T13:10:23;101443.97;;;16.60;91.41
8398;BME280;4236;54.504;9.588;2022-10-13T13:12:51;101454.09;;;16.58;91.88
8398;BME280;4236;54.504;9.588;2022-10-13T13:15:32;101445.72;;;16.41;90.96
8398;BME280;4236;54.504;9.588;2022-10-13T13:18:30;101444.63;;;16.18;91.76
8398;BME280;4236;54.504;9.588;2022-10-13T13:21:04;101444.81;;;15.85;91.98
8398;BME280;4236;54.504;9.588;2022-10-13T13:23:32;101445.28;;;15.69;94.73
8398;BME280;4236;54.504;9.588;2022-10-13T13:26:03;101442.59;;;15.62;96.83
8398;BME280;4236;54.504;9.588;2022-10-13T13:28:33;101431.06;;;15.55;97.82
8398;BME280;4236;54.504;9.588;2022-10-13T13:31:00;101437.69;;;15.39;99.24
8398;BME280;4236;54.504;9.588;2022-10-13T13:33:29;101446.41;;;15.35;99.99
8398;BME280;4236;54.504;9.588;2022-10-13T13:35:57;101446.19;;;15.30;100.00
8398;BME280;4236;54.504;9.588;2022-10-13T13:38:25;101444.34;;;15.30;100.00